sensor_id;sensor_type;location;lat;lon;timestamp;pressure;altitude;pressure_sealevel;temperature;humidity
68380;BME280;57711;53.196;19.638;2023-03-05T00:01:14;99636.33;;;-0.61;58.22
68380;BME280;57711;53.196;19.638;2023-03-05T00:03:42;99635.64;;;-0.62;58.43
68380;BME280;57711;53.196;19.638;2023-03-05T00:06:09;99635.55;;;-0.63;58.35
68380;BME280;57711;53.196;19.638;2023-03-05T00:08:36;99628.52;;;-0.68;58.25
68380;BME280;57711;53.196;19.638;2023-03-05T00:11:07;99627.73;;;-0.69;58.53
68380;BME280;57711;53.196;19.638;2023-03-05T00:13:35;99623.17;;;-0.70;58.43
68380;BME280;57711;53.196;19.638;2023-03-05T00:16:07;99618.51;;;-0.73;58.40
68380;BME280;57711;53.196;19.638;2023-03-05T00:18:35;99615.40;;;-0.75;58.43
68380;BME280;57711;53.196;19.638;2023-03-05T00:21:03;99611.60;;;-0.77;58.53
68380;BME280;57711;53.196;19.638;2023-03-05T00:23:30;99606.80;;;-0.80;58.50
68380;BME280;57711;53.196;19.638;2023-03-05T00:26:00;99598.55;;;-0.82;58.49
68380;BME280;57711;53.196;19.638;2023-03-05T00:28:28;99589.95;;;-0.84;58.50
68380;BME280;57711;53.196;19.638;2023-03-05T00:30:59;99590.25;;;-0.86;58.40
68380;BME280;57711;53.196;19.638;2023-03-05T00:33:27;99587.09;;;-0.86;58.48
68380;BME280;57711;53.196;19.638;2023-03-05T00:35:54;99588.67;;;-0.86;58.40
68380;BME280;57711;53.196;19.638;2023-03-05T00:38:21;99588.27;;;-0.85;58.29
68380;BME280;57711;53.196;19.638;2023-03-05T00:40:49;99579.47;;;-0.87;58.21
68380;BME280;57711;53.196;19.638;2023-03-05T00:43:16;99576.23;;;-0.89;58.32
68380;BME280;57711;53.196;19.638;2023-03-05T00:45:43;99580.79;;;-0.92;58.33
68380;BME280;57711;53.196;19.638;2023-03-05T00:48:11;99582.45;;;-0.97;58.18
68380;BME280;57711;53.196;19.638;2023-03-05T00:50:38;99578.69;;;-1.02;58.15
68380;BME280;57711;53.196;19.638;2023-03-05T00:53:05;99578.41;;;-1.04;58.31
68380;BME280;57711;53.196;19.638;2023-03-05T00:55:32;99581.09;;;-1.04;58.40
68380;BME280;57711;53.196;19.638;2023-03-05T00:58:02;99575.72;;;-1.06;58.32
68380;BME280;57711;53.196;19.638;2023-03-05T01:00:29;99578.97;;;-1.07;58.45
68380;BME280;57711;53.196;19.638;2023-03-05T01:02:56;99573.01;;;-1.09;58.41
68380;BME280;57711;53.196;19.638;2023-03-05T01:05:25;99568.08;;;-1.10;58.43
68380;BME280;57711;53.196;19.638;2023-03-05T01:07:54;99561.95;;;-1.11;58.44
68380;BME280;57711;53.196;19.638;2023-03-05T01:10:23;99558.95;;;-1.15;58.21
68380;BME280;57711;53.196;19.638;2023-03-05T01:12:53;99557.73;;;-1.19;58.37
68380;BME280;57711;53.196;19.638;2023-03-05T01:15:22;99555.77;;;-1.19;58.56
68380;BME280;57711;53.196;19.638;2023-03-05T01:17:49;99551.69;;;-1.19;58.51
68380;BME280;57711;53.196;19.638;2023-03-05T01:20:19;99552.00;;;-1.18;58.47
68380;BME280;57711;53.196;19.638;2023-03-05T01:22:47;99550.11;;;-1.16;58.36
68380;BME280;57711;53.196;19.638;2023-03-05T01:25:15;99546.39;;;-1.12;58.27
68380;BME280;57711;53.196;19.638;2023-03-05T01:27:43;99546.52;;;-1.08;58.32
68380;BME280;57711;53.196;19.638;2023-03-05T01:30:12;99547.22;;;-1.04;58.34
68380;BME280;57711;53.196;19.638;2023-03-05T01:32:40;99550.33;;;-1.06;58.10
68380;BME280;57711;53.196;19.638;2023-03-05T01:35:07;99548.91;;;-1.09;58.26
68380;BME280;57711;53.196;19.638;2023-03-05T01:37:36;99545.95;;;-1.11;58.30
68380;BME280;57711;53.196;19.638;2023-03-05T01:40:04;99544.07;;;-1.12;58.34
68380;BME280;57711;53.196;19.638;2023-03-05T01:42:32;99542.73;;;-1.13;58.40
68380;BME280;57711;53.196;19.638;2023-03-05T01:47:28;99539.98;;;-1.16;58.35
68380;BME280;57711;53.196;19.638;2023-03-05T01:49:56;99537.90;;;-1.20;58.19
68380;BME280;57711;53.196;19.638;2023-03-05T01:52:23;99536.27;;;-1.22;58.36
68380;BME280;57711;53.196;19.638;2023-03-05T01:57:22;99531.35;;;-1.23;58.26
68380;BME280;57711;53.196;19.638;2023-03-05T01:59:55;99527.23;;;-1.26;58.27
68380;BME280;57711;53.196;19.638;2023-03-05T02:02:24;99522.27;;;-1.29;58.43
68380;BME280;57711;53.196;19.638;2023-03-05T02:04:59;99515.80;;;-1.31;58.42
68380;BME280;57711;53.196;19.638;2023-03-05T02:07:29;99519.78;;;-1.33;58.39
68380;BME280;57711;53.196;19.638;2023-03-05T02:09:58;99516.89;;;-1.35;58.37
68380;BME280;57711;53.196;19.638;2023-03-05T02:12:25;99514.67;;;-1.37;58.35
68380;BME280;57711;53.196;19.638;2023-03-05T02:14:52;99513.71;;;-1.35;58.33
68380;BME280;57711;53.196;19.638;2023-03-05T02:17:28;99510.12;;;-1.31;58.28
68380;BME280;57711;53.196;19.638;2023-03-05T02:20:04;99506.08;;;-1.28;58.26
68380;BME280;57711;53.196;19.638;2023-03-05T02:22:32;99505.23;;;-1.26;58.41
68380;BME280;57711;53.196;19.638;2023-03-05T02:24:59;99504.64;;;-1.24;58.38
68380;BME280;57711;53.196;19.638;2023-03-05T02:27:30;99503.27;;;-1.26;58.34
68380;BME280;57711;53.196;19.638;2023-03-05T02:30:01;99496.10;;;-1.27;58.35
68380;BME280;57711;53.196;19.638;2023-03-05T02:32:29;99497.55;;;-1.28;58.43
68380;BME280;57711;53.196;19.638;2023-03-05T02:34:56;99492.29;;;-1.29;58.43
68380;BME280;57711;53.196;19.638;2023-03-05T02:37:23;99490.83;;;-1.28;58.43
68380;BME280;57711;53.196;19.638;2023-03-05T02:39:50;99488.70;;;-1.25;58.61
68380;BME280;57711;53.196;19.638;2023-03-05T02:42:18;99486.59;;;-1.26;58.49
68380;BME280;57711;53.196;19.638;2023-03-05T02:44:45;99486.40;;;-1.25;58.54
68380;BME280;57711;53.196;19.638;2023-03-05T02:47:12;99486.02;;;-1.25;58.55
68380;BME280;57711;53.196;19.638;2023-03-05T02:49:39;99484.45;;;-1.25;58.45
68380;BME280;57711;53.196;19.638;2023-03-05T02:52:06;99482.66;;;-1.25;58.55
68380;BME280;57711;53.196;19.638;2023-03-05T02:54:33;99486.77;;;-1.25;58.48
68380;BME280;57711;53.196;19.638;2023-03-05T02:57:02;99483.04;;;-1.29;58.42
68380;BME280;57711;53.196;19.638;2023-03-05T02:59:29;99481.20;;;-1.31;58.44
68380;BME280;57711;53.196;19.638;2023-03-05T03:01:56;99478.30;;;-1.32;58.45
68380;BME280;57711;53.196;19.638;2023-03-05T03:04:24;99477.35;;;-1.32;58.43
68380;BME280;57711;53.196;19.638;2023-03-05T03:06:51;99476.19;;;-1.30;58.56
68380;BME280;57711;53.196;19.638;2023-03-05T03:09:19;99476.05;;;-1.27;58.41
68380;BME280;57711;53.196;19.638;2023-03-05T03:11:46;99473.95;;;-1.27;58.36
68380;BME280;57711;53.196;19.638;2023-03-05T03:14:13;99472.98;;;-1.26;58.52
68380;BME280;57711;53.196;19.638;2023-03-05T03:16:40;99470.56;;;-1.24;58.50
68380;BME280;57711;53.196;19.638;2023-03-05T03:19:08;99467.23;;;-1.25;58.51
68380;BME280;57711;53.196;19.638;2023-03-05T03:21:35;99468.48;;;-1.25;58.62
68380;BME280;57711;53.196;19.638;2023-03-05T03:24:02;99462.86;;;-1.23;58.57
68380;BME280;57711;53.196;19.638;2023-03-05T03:26:29;99462.02;;;-1.24;58.62
68380;BME280;57711;53.196;19.638;2023-03-05T03:28:57;99462.29;;;-1.25;58.57
68380;BME280;57711;53.196;19.638;2023-03-05T03:31:24;99462.58;;;-1.27;58.62
68380;BME280;57711;53.196;19.638;2023-03-05T03:33:52;99459.33;;;-1.29;58.59
68380;BME280;57711;53.196;19.638;2023-03-05T03:36:19;99457.67;;;-1.31;58.58
68380;BME280;57711;53.196;19.638;2023-03-05T03:38:46;99453.27;;;-1.33;58.70
68380;BME280;57711;53.196;19.638;2023-03-05T03:41:13;99449.04;;;-1.33;58.69
68380;BME280;57711;53.196;19.638;2023-03-05T03:43:40;99446.27;;;-1.31;58.79
68380;BME280;57711;53.196;19.638;2023-03-05T03:46:07;99440.86;;;-1.26;58.68
68380;BME280;57711;53.196;19.638;2023-03-05T03:48:35;99439.96;;;-1.22;58.72
68380;BME280;57711;53.196;19.638;2023-03-05T03:51:05;99436.48;;;-1.18;58.68
68380;BME280;57711;53.196;19.638;2023-03-05T03:53:33;99437.48;;;-1.12;58.68
68380;BME280;57711;53.196;19.638;2023-03-05T03:56:00;99428.31;;;-1.10;58.84
68380;BME280;57711;53.196;19.638;2023-03-05T03:58:27;99429.15;;;-1.06;58.90
68380;BME280;57711;53.196;19.638;2023-03-05T04:00:54;99425.69;;;-1.04;58.99
68380;BME280;57711;53.196;19.638;2023-03-05T04:03:22;99422.91;;;-1.02;58.86
68380;BME280;57711;53.196;19.638;2023-03-05T04:05:49;99421.10;;;-1.02;58.82
68380;BME280;57711;53.196;19.638;2023-03-05T04:08:16;99415.27;;;-1.02;58.88
68380;BME280;57711;53.196;19.638;2023-03-05T04:10:43;99412.64;;;-1.02;58.83
68380;BME280;57711;53.196;19.638;2023-03-05T04:13:10;99412.13;;;-1.03;58.90
68380;BME280;57711;53.196;19.638;2023-03-05T04:15:38;99410.15;;;-1.06;58.92
68380;BME280;57711;53.196;19.638;2023-03-05T04:18:05;99405.73;;;-1.09;58.89
68380;BME280;57711;53.196;19.638;2023-03-05T04:20:32;99405.39;;;-1.13;58.85
68380;BME280;57711;53.196;19.638;2023-03-05T04:22:59;99398.10;;;-1.19;58.77
68380;BME280;57711;53.196;19.638;2023-03-05T04:25:27;99390.34;;;-1.23;58.98
68380;BME280;57711;53.196;19.638;2023-03-05T04:27:54;99390.55;;;-1.23;58.95
68380;BME280;57711;53.196;19.638;2023-03-05T04:30:21;99382.30;;;-1.25;58.88
68380;BME280;57711;53.196;19.638;2023-03-05T04:32:48;99367.92;;;-1.25;58.89
68380;BME280;57711;53.196;19.638;2023-03-05T04:35:15;99361.11;;;-1.21;58.95
68380;BME280;57711;53.196;19.638;2023-03-05T04:37:43;99363.65;;;-1.18;58.89
68380;BME280;57711;53.196;19.638;2023-03-05T04:40:11;99358.90;;;-1.16;58.89
68380;BME280;57711;53.196;19.638;2023-03-05T04:42:38;99354.70;;;-1.14;58.93
68380;BME280;57711;53.196;19.638;2023-03-05T04:45:05;99348.33;;;-1.13;58.93
68380;BME280;57711;53.196;19.638;2023-03-05T04:47:33;99345.19;;;-1.15;58.94
68380;BME280;57711;53.196;19.638;2023-03-05T04:50:01;99347.34;;;-1.15;59.05
68380;BME280;57711;53.196;19.638;2023-03-05T04:52:30;99344.48;;;-1.15;59.14
68380;BME280;57711;53.196;19.638;2023-03-05T04:54:57;99343.27;;;-1.12;59.16
68380;BME280;57711;53.196;19.638;2023-03-05T04:57:24;99340.00;;;-1.14;59.05
68380;BME280;57711;53.196;19.638;2023-03-05T04:59:52;99336.57;;;-1.16;59.16
68380;BME280;57711;53.196;19.638;2023-03-05T05:02:19;99335.73;;;-1.17;59.18
68380;BME280;57711;53.196;19.638;2023-03-05T05:04:46;99329.80;;;-1.19;59.02
68380;BME280;57711;53.196;19.638;2023-03-05T05:07:13;99320.25;;;-1.22;59.20
68380;BME280;57711;53.196;19.638;2023-03-05T05:09:40;99311.38;;;-1.22;59.18
68380;BME280;57711;53.196;19.638;2023-03-05T05:12:07;99301.69;;;-1.20;59.15
68380;BME280;57711;53.196;19.638;2023-03-05T05:14:36;99296.36;;;-1.17;59.23
68380;BME280;57711;53.196;19.638;2023-03-05T05:17:03;99302.23;;;-1.14;59.20
68380;BME280;57711;53.196;19.638;2023-03-05T05:19:32;99307.48;;;-1.13;59.09
68380;BME280;57711;53.196;19.638;2023-03-05T05:22:00;99314.77;;;-1.13;59.09
68380;BME280;57711;53.196;19.638;2023-03-05T05:24:28;99318.63;;;-1.12;59.16
68380;BME280;57711;53.196;19.638;2023-03-05T05:26:55;99323.77;;;-1.12;59.17
68380;BME280;57711;53.196;19.638;2023-03-05T05:29:22;99320.27;;;-1.13;59.28
68380;BME280;57711;53.196;19.638;2023-03-05T05:31:49;99321.35;;;-1.13;59.32
68380;BME280;57711;53.196;19.638;2023-03-05T05:34:17;99323.69;;;-1.13;59.25
68380;BME280;57711;53.196;19.638;2023-03-05T05:36:44;99322.65;;;-1.18;59.22
68380;BME280;57711;53.196;19.638;2023-03-05T05:39:11;99322.27;;;-1.20;59.26
68380;BME280;57711;53.196;19.638;2023-03-05T05:41:38;99332.30;;;-1.22;59.26
68380;BME280;57711;53.196;19.638;2023-03-05T05:44:05;99330.73;;;-1.23;59.18
68380;BME280;57711;53.196;19.638;2023-03-05T05:46:32;99332.10;;;-1.19;59.23
68380;BME280;57711;53.196;19.638;2023-03-05T05:49:00;99326.92;;;-1.15;59.25
68380;BME280;57711;53.196;19.638;2023-03-05T05:51:27;99330.80;;;-1.11;59.22
68380;BME280;57711;53.196;19.638;2023-03-05T05:53:54;99328.95;;;-1.09;59.25
68380;BME280;57711;53.196;19.638;2023-03-05T05:56:21;99323.42;;;-1.09;59.21
68380;BME280;57711;53.196;19.638;2023-03-05T05:58:49;99318.28;;;-1.09;59.21
68380;BME280;57711;53.196;19.638;2023-03-05T06:01:23;99316.28;;;-1.11;59.34
68380;BME280;57711;53.196;19.638;2023-03-05T06:03:51;99312.52;;;-1.11;59.26
68380;BME280;57711;53.196;19.638;2023-03-05T06:06:20;99311.14;;;-1.11;59.31
68380;BME280;57711;53.196;19.638;2023-03-05T06:08:48;99309.43;;;-1.13;59.30
68380;BME280;57711;53.196;19.638;2023-03-05T06:11:15;99312.95;;;-1.12;59.42
68380;BME280;57711;53.196;19.638;2023-03-05T06:13:45;99307.16;;;-1.10;59.48
68380;BME280;57711;53.196;19.638;2023-03-05T06:16:16;99308.54;;;-1.06;59.39
68380;BME280;57711;53.196;19.638;2023-03-05T06:18:44;99307.42;;;-1.03;59.49
68380;BME280;57711;53.196;19.638;2023-03-05T06:21:13;99308.25;;;-1.01;59.20
68380;BME280;57711;53.196;19.638;2023-03-05T06:23:41;99303.00;;;-1.00;59.30
68380;BME280;57711;53.196;19.638;2023-03-05T06:26:10;99307.02;;;-0.99;59.23
68380;BME280;57711;53.196;19.638;2023-03-05T06:28:38;99307.91;;;-0.99;59.31
68380;BME280;57711;53.196;19.638;2023-03-05T06:31:11;99311.09;;;-0.98;59.29
68380;BME280;57711;53.196;19.638;2023-03-05T06:33:40;99312.37;;;-0.99;59.37
68380;BME280;57711;53.196;19.638;2023-03-05T06:36:11;99316.88;;;-0.97;59.30
68380;BME280;57711;53.196;19.638;2023-03-05T06:38:39;99318.38;;;-0.95;59.50
68380;BME280;57711;53.196;19.638;2023-03-05T06:41:08;99317.77;;;-0.94;59.43
68380;BME280;57711;53.196;19.638;2023-03-05T06:43:39;99317.10;;;-0.91;59.47
68380;BME280;57711;53.196;19.638;2023-03-05T06:46:12;99313.75;;;-0.89;59.49
68380;BME280;57711;53.196;19.638;2023-03-05T06:48:40;99312.63;;;-0.85;59.54
68380;BME280;57711;53.196;19.638;2023-03-05T06:51:26;99311.01;;;-0.78;59.51
68380;BME280;57711;53.196;19.638;2023-03-05T06:53:54;99312.32;;;-0.70;59.53
68380;BME280;57711;53.196;19.638;2023-03-05T06:56:22;99309.56;;;-0.65;59.40
68380;BME280;57711;53.196;19.638;2023-03-05T06:58:50;99304.05;;;-0.62;59.54
68380;BME280;57711;53.196;19.638;2023-03-05T07:01:19;99307.64;;;-0.60;59.39
68380;BME280;57711;53.196;19.638;2023-03-05T07:03:53;99305.60;;;-0.59;59.48
68380;BME280;57711;53.196;19.638;2023-03-05T07:06:21;99303.98;;;-0.58;59.53
68380;BME280;57711;53.196;19.638;2023-03-05T07:08:49;99305.61;;;-0.56;59.58
68380;BME280;57711;53.196;19.638;2023-03-05T07:11:18;99305.30;;;-0.53;59.57
68380;BME280;57711;53.196;19.638;2023-03-05T07:13:46;99304.11;;;-0.51;59.57
68380;BME280;57711;53.196;19.638;2023-03-05T07:16:20;99306.66;;;-0.49;59.66
68380;BME280;57711;53.196;19.638;2023-03-05T07:18:48;99307.41;;;-0.47;59.62
68380;BME280;57711;53.196;19.638;2023-03-05T07:21:24;99306.27;;;-0.43;59.63
68380;BME280;57711;53.196;19.638;2023-03-05T07:23:52;99305.63;;;-0.38;59.52
68380;BME280;57711;53.196;19.638;2023-03-05T07:26:20;99306.33;;;-0.31;59.61
68380;BME280;57711;53.196;19.638;2023-03-05T07:28:48;99306.48;;;-0.26;59.61
68380;BME280;57711;53.196;19.638;2023-03-05T07:31:17;99311.23;;;-0.22;59.58
68380;BME280;57711;53.196;19.638;2023-03-05T07:33:47;99306.02;;;-0.21;59.68
68380;BME280;57711;53.196;19.638;2023-03-05T07:36:16;99305.31;;;-0.17;59.73
68380;BME280;57711;53.196;19.638;2023-03-05T07:38:43;99304.40;;;-0.14;59.73
68380;BME280;57711;53.196;19.638;2023-03-05T07:41:13;99301.14;;;-0.11;59.91
68380;BME280;57711;53.196;19.638;2023-03-05T07:43:47;99300.44;;;-0.08;59.69
68380;BME280;57711;53.196;19.638;2023-03-05T07:46:16;99298.70;;;-0.06;59.75
68380;BME280;57711;53.196;19.638;2023-03-05T07:48:44;99302.02;;;-0.02;59.68
68380;BME280;57711;53.196;19.638;2023-03-05T07:51:13;99301.58;;;0.03;59.77
68380;BME280;57711;53.196;19.638;2023-03-05T07:53:42;99304.10;;;0.08;59.85
68380;BME280;57711;53.196;19.638;2023-03-05T07:56:10;99301.86;;;0.10;59.81
68380;BME280;57711;53.196;19.638;2023-03-05T07:58:37;99300.11;;;0.12;59.80
68380;BME280;57711;53.196;19.638;2023-03-05T08:01:10;99301.80;;;0.17;59.75
68380;BME280;57711;53.196;19.638;2023-03-05T08:03:42;99299.95;;;0.17;59.70
68380;BME280;57711;53.196;19.638;2023-03-05T08:06:10;99301.13;;;0.19;59.69
68380;BME280;57711;53.196;19.638;2023-03-05T08:08:38;99300.84;;;0.21;59.81
68380;BME280;57711;53.196;19.638;2023-03-05T08:11:07;99298.77;;;0.23;59.88
68380;BME280;57711;53.196;19.638;2023-03-05T08:13:36;99298.33;;;0.24;59.86
68380;BME280;57711;53.196;19.638;2023-03-05T08:16:04;99296.69;;;0.25;59.86
68380;BME280;57711;53.196;19.638;2023-03-05T08:18:32;99295.94;;;0.28;59.86
68380;BME280;57711;53.196;19.638;2023-03-05T08:21:00;99297.12;;;0.32;59.89
68380;BME280;57711;53.196;19.638;2023-03-05T08:23:27;99295.43;;;0.36;60.08
68380;BME280;57711;53.196;19.638;2023-03-05T08:25:55;99289.63;;;0.41;60.00
68380;BME280;57711;53.196;19.638;2023-03-05T08:28:22;99290.13;;;0.42;59.95
68380;BME280;57711;53.196;19.638;2023-03-05T08:30:49;99286.89;;;0.42;59.97
68380;BME280;57711;53.196;19.638;2023-03-05T08:33:17;99288.30;;;0.45;59.97
68380;BME280;57711;53.196;19.638;2023-03-05T08:35:44;99287.60;;;0.50;59.99
68380;BME280;57711;53.196;19.638;2023-03-05T08:38:12;99288.30;;;0.56;60.00
68380;BME280;57711;53.196;19.638;2023-03-05T08:40:39;99284.46;;;0.61;59.87
68380;BME280;57711;53.196;19.638;2023-03-05T08:43:06;99280.28;;;0.65;59.90
68380;BME280;57711;53.196;19.638;2023-03-05T08:45:33;99281.55;;;0.67;59.82
68380;BME280;57711;53.196;19.638;2023-03-05T08:48:00;99280.70;;;0.67;59.79
68380;BME280;57711;53.196;19.638;2023-03-05T08:50:27;99274.33;;;0.63;59.79
68380;BME280;57711;53.196;19.638;2023-03-05T08:52:54;99274.14;;;0.64;59.93
68380;BME280;57711;53.196;19.638;2023-03-05T08:55:22;99275.39;;;0.66;59.92
68380;BME280;57711;53.196;19.638;2023-03-05T08:57:49;99280.26;;;0.65;59.97
68380;BME280;57711;53.196;19.638;2023-03-05T09:00:17;99281.84;;;0.65;59.99
68380;BME280;57711;53.196;19.638;2023-03-05T09:02:44;99283.36;;;0.67;60.04
68380;BME280;57711;53.196;19.638;2023-03-05T09:05:12;99279.46;;;0.64;59.99
68380;BME280;57711;53.196;19.638;2023-03-05T09:07:39;99280.91;;;0.63;60.04
68380;BME280;57711;53.196;19.638;2023-03-05T09:10:07;99276.20;;;0.62;60.02
68380;BME280;57711;53.196;19.638;2023-03-05T09:12:37;99280.77;;;0.66;60.09
68380;BME280;57711;53.196;19.638;2023-03-05T09:15:05;99277.42;;;0.70;60.01
68380;BME280;57711;53.196;19.638;2023-03-05T09:17:35;99273.39;;;0.72;59.93
68380;BME280;57711;53.196;19.638;2023-03-05T09:20:04;99273.11;;;0.71;59.92
68380;BME280;57711;53.196;19.638;2023-03-05T09:22:32;99273.33;;;0.70;60.00
68380;BME280;57711;53.196;19.638;2023-03-05T09:24:59;99275.92;;;0.72;59.92
68380;BME280;57711;53.196;19.638;2023-03-05T09:27:26;99274.83;;;0.72;59.93
68380;BME280;57711;53.196;19.638;2023-03-05T09:29:53;99273.58;;;0.72;59.97
68380;BME280;57711;53.196;19.638;2023-03-05T09:32:21;99271.52;;;0.74;60.16
68380;BME280;57711;53.196;19.638;2023-03-05T09:34:48;99268.63;;;0.78;60.11
68380;BME280;57711;53.196;19.638;2023-03-05T09:37:15;99269.40;;;0.80;60.11
68380;BME280;57711;53.196;19.638;2023-03-05T09:39:42;99268.56;;;0.81;60.14
68380;BME280;57711;53.196;19.638;2023-03-05T09:48:18;99268.84;;;0.88;60.22
68380;BME280;57711;53.196;19.638;2023-03-05T09:50:47;99267.80;;;0.98;60.15
68380;BME280;57711;53.196;19.638;2023-03-05T09:56:02;99261.91;;;1.09;60.13
68380;BME280;57711;53.196;19.638;2023-03-05T09:59:01;99259.83;;;1.11;60.11
68380;BME280;57711;53.196;19.638;2023-03-05T10:01:36;99256.98;;;1.13;60.05
68380;BME280;57711;53.196;19.638;2023-03-05T10:04:24;99253.05;;;1.14;60.06
68380;BME280;57711;53.196;19.638;2023-03-05T10:06:58;99252.27;;;1.16;60.09
68380;BME280;57711;53.196;19.638;2023-03-05T10:09:40;99250.12;;;1.18;60.27
68380;BME280;57711;53.196;19.638;2023-03-05T10:12:21;99249.70;;;1.22;60.21
68380;BME280;57711;53.196;19.638;2023-03-05T10:14:51;99247.36;;;1.25;60.26
68380;BME280;57711;53.196;19.638;2023-03-05T10:28:48;99240.19;;;1.62;60.26
68380;BME280;57711;53.196;19.638;2023-03-05T10:40:04;99234.51;;;1.75;60.15
68380;BME280;57711;53.196;19.638;2023-03-05T10:42:46;99234.34;;;1.80;60.18
68380;BME280;57711;53.196;19.638;2023-03-05T10:45:37;99229.93;;;1.82;60.10
68380;BME280;57711;53.196;19.638;2023-03-05T10:48:11;99231.23;;;1.81;60.19
68380;BME280;57711;53.196;19.638;2023-03-05T10:50:50;99222.60;;;1.85;60.20
68380;BME280;57711;53.196;19.638;2023-03-05T10:56:01;99220.73;;;1.88;60.17
68380;BME280;57711;53.196;19.638;2023-03-05T10:58:30;99221.41;;;1.89;60.12
68380;BME280;57711;53.196;19.638;2023-03-05T11:03:53;99216.73;;;1.84;60.13
68380;BME280;57711;53.196;19.638;2023-03-05T11:09:15;99215.02;;;1.78;60.22
68380;BME280;57711;53.196;19.638;2023-03-05T11:14:30;99215.41;;;1.91;60.25
68380;BME280;57711;53.196;19.638;2023-03-05T11:17:00;99213.03;;;1.97;60.18
68380;BME280;57711;53.196;19.638;2023-03-05T11:19:32;99211.94;;;2.00;60.11
68380;BME280;57711;53.196;19.638;2023-03-05T11:22:04;99208.59;;;1.99;60.01
68380;BME280;57711;53.196;19.638;2023-03-05T11:24:32;99206.48;;;1.99;59.99
68380;BME280;57711;53.196;19.638;2023-03-05T11:26:59;99204.84;;;1.94;59.96
68380;BME280;57711;53.196;19.638;2023-03-05T11:29:30;99201.16;;;1.91;60.07
68380;BME280;57711;53.196;19.638;2023-03-05T11:32:15;99201.29;;;1.91;60.21
68380;BME280;57711;53.196;19.638;2023-03-05T11:34:46;99200.00;;;1.92;60.22
68380;BME280;57711;53.196;19.638;2023-03-05T11:40:19;99197.95;;;1.91;60.06
68380;BME280;57711;53.196;19.638;2023-03-05T11:42:53;99195.63;;;1.83;60.07
68380;BME280;57711;53.196;19.638;2023-03-05T11:45:22;99199.33;;;1.79;60.09
68380;BME280;57711;53.196;19.638;2023-03-05T11:48:23;99196.40;;;1.77;60.23
68380;BME280;57711;53.196;19.638;2023-03-05T11:50:58;99190.23;;;1.76;60.12
68380;BME280;57711;53.196;19.638;2023-03-05T11:53:30;99196.77;;;1.74;60.14
68380;BME280;57711;53.196;19.638;2023-03-05T11:56:02;99194.67;;;1.74;59.99
68380;BME280;57711;53.196;19.638;2023-03-05T11:58:58;99193.17;;;1.77;60.05
68380;BME280;57711;53.196;19.638;2023-03-05T12:01:29;99191.42;;;1.82;60.14
68380;BME280;57711;53.196;19.638;2023-03-05T12:03:57;99186.60;;;1.87;60.15
68380;BME280;57711;53.196;19.638;2023-03-05T12:06:39;99187.59;;;1.94;60.20
68380;BME280;57711;53.196;19.638;2023-03-05T12:23:23;99171.27;;;2.10;60.04
68380;BME280;57711;53.196;19.638;2023-03-05T12:25:54;99169.67;;;2.10;60.04
68380;BME280;57711;53.196;19.638;2023-03-05T12:31:04;99167.17;;;2.15;60.17
68380;BME280;57711;53.196;19.638;2023-03-05T12:33:39;99163.27;;;2.17;60.14
68380;BME280;57711;53.196;19.638;2023-03-05T12:38:45;99157.13;;;2.23;60.11
68380;BME280;57711;53.196;19.638;2023-03-05T12:46:33;99151.44;;;2.33;60.10
68380;BME280;57711;53.196;19.638;2023-03-05T12:51:49;99140.71;;;2.38;60.05
68380;BME280;57711;53.196;19.638;2023-03-05T12:57:05;99140.35;;;2.45;60.08
68380;BME280;57711;53.196;19.638;2023-03-05T13:05:03;99133.23;;;2.38;59.81
68380;BME280;57711;53.196;19.638;2023-03-05T13:07:33;99130.98;;;2.32;59.95
68380;BME280;57711;53.196;19.638;2023-03-05T13:10:00;99132.96;;;2.27;59.68
68380;BME280;57711;53.196;19.638;2023-03-05T13:12:29;99131.62;;;2.21;59.78
68380;BME280;57711;53.196;19.638;2023-03-05T13:15:07;99131.34;;;2.19;59.88
68380;BME280;57711;53.196;19.638;2023-03-05T13:17:55;99134.60;;;2.21;59.79
68380;BME280;57711;53.196;19.638;2023-03-05T13:20:31;99135.38;;;2.16;59.72
68380;BME280;57711;53.196;19.638;2023-03-05T13:23:22;99131.83;;;2.13;59.81
68380;BME280;57711;53.196;19.638;2023-03-05T13:26:10;99136.63;;;2.23;59.93
68380;BME280;57711;53.196;19.638;2023-03-05T13:28:38;99134.45;;;2.38;59.92
68380;BME280;57711;53.196;19.638;2023-03-05T13:31:16;99133.63;;;2.49;59.95
68380;BME280;57711;53.196;19.638;2023-03-05T13:33:53;99126.23;;;2.62;59.85
68380;BME280;57711;53.196;19.638;2023-03-05T13:36:24;99129.67;;;2.74;59.91
68380;BME280;57711;53.196;19.638;2023-03-05T13:38:52;99127.06;;;2.89;59.95
68380;BME280;57711;53.196;19.638;2023-03-05T13:41:23;99126.93;;;3.03;59.86
68380;BME280;57711;53.196;19.638;2023-03-05T13:43:59;99125.58;;;3.09;59.74
68380;BME280;57711;53.196;19.638;2023-03-05T13:46:37;99123.58;;;3.16;59.80
68380;BME280;57711;53.196;19.638;2023-03-05T13:49:33;99122.63;;;3.22;59.73
68380;BME280;57711;53.196;19.638;2023-03-05T13:52:01;99126.75;;;3.17;59.50
68380;BME280;57711;53.196;19.638;2023-03-05T13:54:29;99124.80;;;3.10;59.52
68380;BME280;57711;53.196;19.638;2023-03-05T13:57:00;99121.52;;;3.09;59.60
68380;BME280;57711;53.196;19.638;2023-03-05T13:59:32;99124.58;;;3.06;59.42
68380;BME280;57711;53.196;19.638;2023-03-05T14:02:03;99122.53;;;2.95;59.35
68380;BME280;57711;53.196;19.638;2023-03-05T14:04:35;99126.14;;;2.85;59.35
68380;BME280;57711;53.196;19.638;2023-03-05T14:07:05;99120.63;;;2.75;59.28
68380;BME280;57711;53.196;19.638;2023-03-05T14:12:05;99123.04;;;2.55;59.33
68380;BME280;57711;53.196;19.638;2023-03-05T14:14:36;99122.77;;;2.51;59.38
68380;BME280;57711;53.196;19.638;2023-03-05T14:19:49;99133.08;;;2.42;59.33
68380;BME280;57711;53.196;19.638;2023-03-05T14:22:34;99141.11;;;2.38;59.46
68380;BME280;57711;53.196;19.638;2023-03-05T14:25:04;99140.55;;;2.25;59.53
68380;BME280;57711;53.196;19.638;2023-03-05T14:27:35;99143.03;;;2.11;59.66
68380;BME280;57711;53.196;19.638;2023-03-05T14:30:04;99135.11;;;1.97;59.70
68380;BME280;57711;53.196;19.638;2023-03-05T14:32:34;99144.75;;;1.82;59.66
68380;BME280;57711;53.196;19.638;2023-03-05T14:35:04;99143.27;;;1.65;59.67
68380;BME280;57711;53.196;19.638;2023-03-05T14:37:34;99139.63;;;1.51;59.76